sensor_id;sensor_type;location;lat;lon;timestamp;temperature;humidity
18753;DHT22;9505;50.882;5.350;2023-10-19T00:00:56;15.60;99.90
18753;DHT22;9505;50.882;5.350;2023-10-19T00:03:23;15.70;99.90
18753;DHT22;9505;50.882;5.350;2023-10-19T00:05:49;15.70;99.90
18753;DHT22;9505;50.882;5.350;2023-10-19T00:08:15;15.70;99.90
18753;DHT22;9505;50.882;5.350;2023-10-19T00:10:53;15.70;99.90
18753;DHT22;9505;50.882;5.350;2023-10-19T00:13:34;15.80;99.90
18753;DHT22;9505;50.882;5.350;2023-10-19T00:16:07;15.80;99.90
18753;DHT22;9505;50.882;5.350;2023-10-19T00:18:45;15.90;99.90
18753;DHT22;9505;50.882;5.350;2023-10-19T00:21:17;15.90;99.90
18753;DHT22;9505;50.882;5.350;2023-10-19T00:23:50;15.90;99.90
18753;DHT22;9505;50.882;5.350;2023-10-19T00:26:17;15.90;99.90
18753;DHT22;9505;50.882;5.350;2023-10-19T00:28:48;16.00;99.90
18753;DHT22;9505;50.882;5.350;2023-10-19T00:31:24;16.00;99.90
18753;DHT22;9505;50.882;5.350;2023-10-19T00:33:52;16.10;99.90
18753;DHT22;9505;50.882;5.350;2023-10-19T00:36:20;16.20;99.90
18753;DHT22;9505;50.882;5.350;2023-10-19T00:38:47;16.20;99.90
18753;DHT22;9505;50.882;5.350;2023-10-19T00:41:23;16.30;99.90
18753;DHT22;9505;50.882;5.350;2023-10-19T00:43:56;16.20;99.90
18753;DHT22;9505;50.882;5.350;2023-10-19T00:46:29;16.30;99.90
18753;DHT22;9505;50.882;5.350;2023-10-19T00:49:01;16.40;99.90
18753;DHT22;9505;50.882;5.350;2023-10-19T00:51:29;16.50;99.90
18753;DHT22;9505;50.882;5.350;2023-10-19T00:53:59;16.50;99.90
18753;DHT22;9505;50.882;5.350;2023-10-19T00:56:27;16.50;99.90
18753;DHT22;9505;50.882;5.350;2023-10-19T00:58:57;16.50;99.90
18753;DHT22;9505;50.882;5.350;2023-10-19T01:01:28;16.50;99.90
18753;DHT22;9505;50.882;5.350;2023-10-19T01:03:55;16.50;99.90
18753;DHT22;9505;50.882;5.350;2023-10-19T01:06:25;16.50;99.90
18753;DHT22;9505;50.882;5.350;2023-10-19T01:08:51;16.50;99.90
18753;DHT22;9505;50.882;5.350;2023-10-19T01:11:20;16.60;99.90
18753;DHT22;9505;50.882;5.350;2023-10-19T01:13:47;16.60;99.90
18753;DHT22;9505;50.882;5.350;2023-10-19T01:16:16;16.60;99.90
18753;DHT22;9505;50.882;5.350;2023-10-19T01:18:50;16.60;99.90
18753;DHT22;9505;50.882;5.350;2023-10-19T01:21:22;16.70;99.90
18753;DHT22;9505;50.882;5.350;2023-10-19T01:23:53;16.60;99.90
18753;DHT22;9505;50.882;5.350;2023-10-19T01:26:19;16.60;99.90
18753;DHT22;9505;50.882;5.350;2023-10-19T01:28:48;16.70;99.90
18753;DHT22;9505;50.882;5.350;2023-10-19T01:31:18;16.70;99.90
18753;DHT22;9505;50.882;5.350;2023-10-19T01:33:48;16.60;99.90
18753;DHT22;9505;50.882;5.350;2023-10-19T01:36:14;16.60;99.90
18753;DHT22;9505;50.882;5.350;2023-10-19T01:38:53;16.60;99.90
18753;DHT22;9505;50.882;5.350;2023-10-19T01:41:21;16.60;99.90
18753;DHT22;9505;50.882;5.350;2023-10-19T01:43:48;16.60;99.90
18753;DHT22;9505;50.882;5.350;2023-10-19T01:46:15;16.60;99.90
18753;DHT22;9505;50.882;5.350;2023-10-19T01:48:48;16.60;99.90
18753;DHT22;9505;50.882;5.350;2023-10-19T01:51:19;16.60;99.90
18753;DHT22;9505;50.882;5.350;2023-10-19T01:53:46;16.60;99.90
18753;DHT22;9505;50.882;5.350;2023-10-19T01:56:14;16.60;99.90
18753;DHT22;9505;50.882;5.350;2023-10-19T01:58:41;16.50;99.90
18753;DHT22;9505;50.882;5.350;2023-10-19T02:01:08;16.40;99.90
18753;DHT22;9505;50.882;5.350;2023-10-19T02:03:40;16.40;99.90
18753;DHT22;9505;50.882;5.350;2023-10-19T02:06:08;16.40;99.90
18753;DHT22;9505;50.882;5.350;2023-10-19T02:09:12;16.50;99.90
18753;DHT22;9505;50.882;5.350;2023-10-19T02:11:53;16.40;99.90
18753;DHT22;9505;50.882;5.350;2023-10-19T02:14:26;16.40;99.90
18753;DHT22;9505;50.882;5.350;2023-10-19T02:16:54;16.40;99.90
18753;DHT22;9505;50.882;5.350;2023-10-19T02:19:22;16.40;99.90
18753;DHT22;9505;50.882;5.350;2023-10-19T02:21:49;16.50;99.90
18753;DHT22;9505;50.882;5.350;2023-10-19T02:24:16;16.50;99.90
18753;DHT22;9505;50.882;5.350;2023-10-19T02:26:42;16.50;99.90
18753;DHT22;9505;50.882;5.350;2023-10-19T02:29:09;16.50;99.90
18753;DHT22;9505;50.882;5.350;2023-10-19T02:31:38;16.40;99.90
18753;DHT22;9505;50.882;5.350;2023-10-19T02:34:06;16.40;99.90
18753;DHT22;9505;50.882;5.350;2023-10-19T02:36:33;16.40;99.90
18753;DHT22;9505;50.882;5.350;2023-10-19T02:39:03;16.40;99.90
18753;DHT22;9505;50.882;5.350;2023-10-19T02:41:34;16.20;99.90
18753;DHT22;9505;50.882;5.350;2023-10-19T02:44:03;16.20;99.90
18753;DHT22;9505;50.882;5.350;2023-10-19T02:46:38;16.20;99.90
18753;DHT22;9505;50.882;5.350;2023-10-19T02:49:05;16.10;99.90
18753;DHT22;9505;50.882;5.350;2023-10-19T02:51:40;16.20;99.90
18753;DHT22;9505;50.882;5.350;2023-10-19T02:54:07;16.20;99.90
18753;DHT22;9505;50.882;5.350;2023-10-19T02:56:33;16.20;99.90
18753;DHT22;9505;50.882;5.350;2023-10-19T02:59:04;16.20;99.90
18753;DHT22;9505;50.882;5.350;2023-10-19T03:01:31;16.30;99.90
18753;DHT22;9505;50.882;5.350;2023-10-19T03:04:01;16.20;99.90
18753;DHT22;9505;50.882;5.350;2023-10-19T03:06:28;16.30;99.90
18753;DHT22;9505;50.882;5.350;2023-10-19T03:08:59;16.20;99.90
18753;DHT22;9505;50.882;5.350;2023-10-19T03:11:29;16.20;99.90
18753;DHT22;9505;50.882;5.350;2023-10-19T03:13:55;16.20;99.90
18753;DHT22;9505;50.882;5.350;2023-10-19T03:16:23;16.20;99.90
18753;DHT22;9505;50.882;5.350;2023-10-19T03:18:56;16.20;99.90
18753;DHT22;9505;50.882;5.350;2023-10-19T03:21:21;16.00;99.90
18753;DHT22;9505;50.882;5.350;2023-10-19T03:23:54;15.90;99.90
18753;DHT22;9505;50.882;5.350;2023-10-19T03:26:22;15.80;99.90
18753;DHT22;9505;50.882;5.350;2023-10-19T03:28:52;15.60;99.90
18753;DHT22;9505;50.882;5.350;2023-10-19T03:31:24;15.60;99.90
18753;DHT22;9505;50.882;5.350;2023-10-19T03:33:51;15.40;99.90
18753;DHT22;9505;50.882;5.350;2023-10-19T03:36:21;15.30;99.90
18753;DHT22;9505;50.882;5.350;2023-10-19T03:38:48;15.30;99.90
18753;DHT22;9505;50.882;5.350;2023-10-19T03:41:15;15.30;99.90
18753;DHT22;9505;50.882;5.350;2023-10-19T03:43:41;15.20;99.90
18753;DHT22;9505;50.882;5.350;2023-10-19T03:46:07;15.20;99.90
18753;DHT22;9505;50.882;5.350;2023-10-19T03:48:52;15.10;99.90
18753;DHT22;9505;50.882;5.350;2023-10-19T03:51:17;15.10;99.90
18753;DHT22;9505;50.882;5.350;2023-10-19T03:53:43;15.10;99.90
18753;DHT22;9505;50.882;5.350;2023-10-19T03:56:20;15.20;99.90
18753;DHT22;9505;50.882;5.350;2023-10-19T03:58:47;15.20;99.90
18753;DHT22;9505;50.882;5.350;2023-10-19T04:01:17;15.20;99.90
18753;DHT22;9505;50.882;5.350;2023-10-19T04:03:45;15.30;99.90
18753;DHT22;9505;50.882;5.350;2023-10-19T04:06:10;15.30;99.90
18753;DHT22;9505;50.882;5.350;2023-10-19T04:08:41;15.30;99.90
18753;DHT22;9505;50.882;5.350;2023-10-19T04:11:08;15.30;99.90
18753;DHT22;9505;50.882;5.350;2023-10-19T04:13:37;15.30;99.90
18753;DHT22;9505;50.882;5.350;2023-10-19T04:16:03;15.30;99.90
18753;DHT22;9505;50.882;5.350;2023-10-19T04:18:29;15.30;99.90
18753;DHT22;9505;50.882;5.350;2023-10-19T04:20:55;15.30;99.90
18753;DHT22;9505;50.882;5.350;2023-10-19T04:23:24;15.30;99.90
18753;DHT22;9505;50.882;5.350;2023-10-19T04:25:56;15.20;99.90
18753;DHT22;9505;50.882;5.350;2023-10-19T04:28:23;15.20;99.90
18753;DHT22;9505;50.882;5.350;2023-10-19T04:31:13;15.10;99.90
18753;DHT22;9505;50.882;5.350;2023-10-19T04:33:40;15.10;99.90
18753;DHT22;9505;50.882;5.350;2023-10-19T04:36:08;15.10;99.90
18753;DHT22;9505;50.882;5.350;2023-10-19T04:38:36;15.10;99.90
18753;DHT22;9505;50.882;5.350;2023-10-19T04:41:10;15.20;99.90
18753;DHT22;9505;50.882;5.350;2023-10-19T04:43:36;15.20;99.90
18753;DHT22;9505;50.882;5.350;2023-10-19T04:46:10;15.20;99.90
18753;DHT22;9505;50.882;5.350;2023-10-19T04:48:39;15.20;99.90
18753;DHT22;9505;50.882;5.350;2023-10-19T04:51:06;15.20;99.90
18753;DHT22;9505;50.882;5.350;2023-10-19T04:53:33;15.30;99.90
18753;DHT22;9505;50.882;5.350;2023-10-19T04:55:59;15.30;99.90
18753;DHT22;9505;50.882;5.350;2023-10-19T04:58:29;15.40;99.90
18753;DHT22;9505;50.882;5.350;2023-10-19T05:00:55;15.40;99.90
18753;DHT22;9505;50.882;5.350;2023-10-19T05:03:21;15.40;99.90
18753;DHT22;9505;50.882;5.350;2023-10-19T05:05:46;15.50;99.90
18753;DHT22;9505;50.882;5.350;2023-10-19T05:08:12;15.50;99.90
18753;DHT22;9505;50.882;5.350;2023-10-19T05:10:38;15.50;99.90
18753;DHT22;9505;50.882;5.350;2023-10-19T05:13:04;15.50;99.90
18753;DHT22;9505;50.882;5.350;2023-10-19T05:15:30;15.60;99.90
18753;DHT22;9505;50.882;5.350;2023-10-19T05:17:55;15.60;99.90
18753;DHT22;9505;50.882;5.350;2023-10-19T05:20:21;15.50;99.90
18753;DHT22;9505;50.882;5.350;2023-10-19T05:22:49;15.50;99.90
18753;DHT22;9505;50.882;5.350;2023-10-19T05:25:14;15.50;99.90
18753;DHT22;9505;50.882;5.350;2023-10-19T05:27:40;15.50;99.90
18753;DHT22;9505;50.882;5.350;2023-10-19T05:30:08;15.50;99.90
18753;DHT22;9505;50.882;5.350;2023-10-19T05:32:36;15.60;99.90
18753;DHT22;9505;50.882;5.350;2023-10-19T05:35:03;15.60;99.90
18753;DHT22;9505;50.882;5.350;2023-10-19T05:37:30;15.60;99.90
18753;DHT22;9505;50.882;5.350;2023-10-19T05:39:56;15.60;99.90
18753;DHT22;9505;50.882;5.350;2023-10-19T05:42:22;15.60;99.90
18753;DHT22;9505;50.882;5.350;2023-10-19T05:44:47;15.60;99.90
18753;DHT22;9505;50.882;5.350;2023-10-19T05:47:13;15.70;99.90
18753;DHT22;9505;50.882;5.350;2023-10-19T05:49:39;15.60;99.90
18753;DHT22;9505;50.882;5.350;2023-10-19T05:52:04;15.60;99.90
18753;DHT22;9505;50.882;5.350;2023-10-19T05:54:30;15.60;99.90
18753;DHT22;9505;50.882;5.350;2023-10-19T05:56:56;15.70;99.90
18753;DHT22;9505;50.882;5.350;2023-10-19T05:59:22;15.70;99.90
18753;DHT22;9505;50.882;5.350;2023-10-19T06:01:52;15.70;99.90
18753;DHT22;9505;50.882;5.350;2023-10-19T06:04:17;15.70;99.90
18753;DHT22;9505;50.882;5.350;2023-10-19T06:06:43;15.70;99.90
18753;DHT22;9505;50.882;5.350;2023-10-19T06:09:09;15.70;99.90
18753;DHT22;9505;50.882;5.350;2023-10-19T06:11:35;15.70;99.90
18753;DHT22;9505;50.882;5.350;2023-10-19T06:14:04;15.70;99.90
18753;DHT22;9505;50.882;5.350;2023-10-19T06:16:33;15.70;99.90
18753;DHT22;9505;50.882;5.350;2023-10-19T06:18:59;15.60;99.90
18753;DHT22;9505;50.882;5.350;2023-10-19T06:21:25;15.70;99.90
18753;DHT22;9505;50.882;5.350;2023-10-19T06:23:51;15.70;99.90
18753;DHT22;9505;50.882;5.350;2023-10-19T06:26:18;15.70;99.90
18753;DHT22;9505;50.882;5.350;2023-10-19T06:28:44;15.70;99.90
18753;DHT22;9505;50.882;5.350;2023-10-19T06:31:09;15.70;99.90
18753;DHT22;9505;50.882;5.350;2023-10-19T06:33:35;15.70;99.90
18753;DHT22;9505;50.882;5.350;2023-10-19T06:36:06;15.70;99.90
18753;DHT22;9505;50.882;5.350;2023-10-19T06:38:32;15.70;99.90
18753;DHT22;9505;50.882;5.350;2023-10-19T06:40:59;15.60;99.90
18753;DHT22;9505;50.882;5.350;2023-10-19T06:43:24;15.50;99.90
18753;DHT22;9505;50.882;5.350;2023-10-19T06:45:54;15.50;99.90
18753;DHT22;9505;50.882;5.350;2023-10-19T06:48:20;15.50;99.90
18753;DHT22;9505;50.882;5.350;2023-10-19T06:50:46;15.50;99.90
18753;DHT22;9505;50.882;5.350;2023-10-19T06:53:12;15.50;99.90
18753;DHT22;9505;50.882;5.350;2023-10-19T06:55:37;15.50;99.90
18753;DHT22;9505;50.882;5.350;2023-10-19T06:58:03;15.50;99.90
18753;DHT22;9505;50.882;5.350;2023-10-19T07:00:30;15.50;99.90
18753;DHT22;9505;50.882;5.350;2023-10-19T07:02:57;15.50;99.90
18753;DHT22;9505;50.882;5.350;2023-10-19T07:05:26;15.60;99.90
18753;DHT22;9505;50.882;5.350;2023-10-19T07:07:55;15.60;99.90
18753;DHT22;9505;50.882;5.350;2023-10-19T07:10:23;15.70;99.90
18753;DHT22;9505;50.882;5.350;2023-10-19T07:12:52;15.70;99.90
18753;DHT22;9505;50.882;5.350;2023-10-19T07:15:19;15.80;99.90
18753;DHT22;9505;50.882;5.350;2023-10-19T07:17:49;15.80;99.90
18753;DHT22;9505;50.882;5.350;2023-10-19T07:20:16;15.80;99.90
18753;DHT22;9505;50.882;5.350;2023-10-19T07:22:57;15.90;99.90
18753;DHT22;9505;50.882;5.350;2023-10-19T07:25:28;16.00;99.90
18753;DHT22;9505;50.882;5.350;2023-10-19T07:27:54;16.10;99.90
18753;DHT22;9505;50.882;5.350;2023-10-19T07:30:21;16.00;99.90
18753;DHT22;9505;50.882;5.350;2023-10-19T07:32:48;16.00;99.90
18753;DHT22;9505;50.882;5.350;2023-10-19T07:35:18;16.00;99.90
18753;DHT22;9505;50.882;5.350;2023-10-19T07:37:44;16.10;99.90
18753;DHT22;9505;50.882;5.350;2023-10-19T07:40:10;16.20;99.90
18753;DHT22;9505;50.882;5.350;2023-10-19T07:42:40;16.20;99.90
18753;DHT22;9505;50.882;5.350;2023-10-19T07:45:06;16.40;99.90
18753;DHT22;9505;50.882;5.350;2023-10-19T07:47:39;16.40;99.90
18753;DHT22;9505;50.882;5.350;2023-10-19T07:50:08;16.50;99.90
18753;DHT22;9505;50.882;5.350;2023-10-19T07:52:47;16.50;99.90
18753;DHT22;9505;50.882;5.350;2023-10-19T07:55:15;16.60;99.90
18753;DHT22;9505;50.882;5.350;2023-10-19T07:57:44;16.60;99.90
18753;DHT22;9505;50.882;5.350;2023-10-19T08:00:11;16.70;99.90
18753;DHT22;9505;50.882;5.350;2023-10-19T08:02:40;17.00;99.90
18753;DHT22;9505;50.882;5.350;2023-10-19T08:05:08;17.30;99.90
18753;DHT22;9505;50.882;5.350;2023-10-19T08:07:33;17.70;99.90
18753;DHT22;9505;50.882;5.350;2023-10-19T08:10:08;18.10;99.90
18753;DHT22;9505;50.882;5.350;2023-10-19T08:12:36;18.30;99.90
18753;DHT22;9505;50.882;5.350;2023-10-19T08:15:03;18.30;99.90
18753;DHT22;9505;50.882;5.350;2023-10-19T08:17:29;18.40;99.90
18753;DHT22;9505;50.882;5.350;2023-10-19T08:19:55;18.40;99.90
18753;DHT22;9505;50.882;5.350;2023-10-19T08:22:22;18.50;99.90
18753;DHT22;9505;50.882;5.350;2023-10-19T08:24:49;18.20;99.90
18753;DHT22;9505;50.882;5.350;2023-10-19T08:27:15;18.00;99.90
18753;DHT22;9505;50.882;5.350;2023-10-19T08:29:42;17.70;99.90
18753;DHT22;9505;50.882;5.350;2023-10-19T08:32:08;17.60;99.90
18753;DHT22;9505;50.882;5.350;2023-10-19T08:34:38;17.80;99.90
18753;DHT22;9505;50.882;5.350;2023-10-19T08:37:05;17.90;99.90
18753;DHT22;9505;50.882;5.350;2023-10-19T08:39:32;17.90;99.90
18753;DHT22;9505;50.882;5.350;2023-10-19T08:42:05;17.90;99.90
18753;DHT22;9505;50.882;5.350;2023-10-19T08:44:34;17.90;99.90
18753;DHT22;9505;50.882;5.350;2023-10-19T08:47:01;18.10;99.90
18753;DHT22;9505;50.882;5.350;2023-10-19T08:49:27;18.40;99.90
18753;DHT22;9505;50.882;5.350;2023-10-19T08:51:54;18.50;99.90
18753;DHT22;9505;50.882;5.350;2023-10-19T08:54:20;18.70;99.90
18753;DHT22;9505;50.882;5.350;2023-10-19T08:56:46;18.80;99.90
18753;DHT22;9505;50.882;5.350;2023-10-19T08:59:13;18.80;99.90
18753;DHT22;9505;50.882;5.350;2023-10-19T09:01:42;18.70;99.90
18753;DHT22;9505;50.882;5.350;2023-10-19T09:04:11;18.70;99.90
18753;DHT22;9505;50.882;5.350;2023-10-19T09:06:38;18.50;99.90
18753;DHT22;9505;50.882;5.350;2023-10-19T09:09:09;18.40;99.90
18753;DHT22;9505;50.882;5.350;2023-10-19T09:11:35;18.40;99.90
18753;DHT22;9505;50.882;5.350;2023-10-19T09:14:01;18.30;99.90
18753;DHT22;9505;50.882;5.350;2023-10-19T09:16:29;18.30;99.90
18753;DHT22;9505;50.882;5.350;2023-10-19T09:18:56;18.20;99.90
18753;DHT22;9505;50.882;5.350;2023-10-19T09:21:22;18.30;99.90
18753;DHT22;9505;50.882;5.350;2023-10-19T09:23:56;18.30;99.90
18753;DHT22;9505;50.882;5.350;2023-10-19T09:26:23;18.20;99.90
18753;DHT22;9505;50.882;5.350;2023-10-19T09:28:50;18.20;99.90
18753;DHT22;9505;50.882;5.350;2023-10-19T09:31:17;18.20;99.90
18753;DHT22;9505;50.882;5.350;2023-10-19T09:33:45;18.30;99.90
18753;DHT22;9505;50.882;5.350;2023-10-19T09:36:12;18.10;99.90
18753;DHT22;9505;50.882;5.350;2023-10-19T09:38:48;18.20;99.90
18753;DHT22;9505;50.882;5.350;2023-10-19T09:41:16;18.30;99.90
18753;DHT22;9505;50.882;5.350;2023-10-19T09:43:50;18.20;99.90
18753;DHT22;9505;50.882;5.350;2023-10-19T09:46:25;18.20;99.90
18753;DHT22;9505;50.882;5.350;2023-10-19T09:48:51;18.30;99.90
18753;DHT22;9505;50.882;5.350;2023-10-19T09:51:18;18.50;99.90
18753;DHT22;9505;50.882;5.350;2023-10-19T09:53:48;18.70;99.90
18753;DHT22;9505;50.882;5.350;2023-10-19T09:56:21;19.10;99.90
18753;DHT22;9505;50.882;5.350;2023-10-19T09:58:54;19.40;99.90
18753;DHT22;9505;50.882;5.350;2023-10-19T10:01:20;19.50;99.90
18753;DHT22;9505;50.882;5.350;2023-10-19T10:03:53;19.50;99.90
18753;DHT22;9505;50.882;5.350;2023-10-19T10:06:30;19.60;99.90
18753;DHT22;9505;50.882;5.350;2023-10-19T10:08:58;19.50;99.90
18753;DHT22;9505;50.882;5.350;2023-10-19T10:11:25;19.40;99.90
18753;DHT22;9505;50.882;5.350;2023-10-19T10:13:53;19.20;99.90
18753;DHT22;9505;50.882;5.350;2023-10-19T10:16:25;19.10;99.90
18753;DHT22;9505;50.882;5.350;2023-10-19T10:18:57;19.10;99.90
18753;DHT22;9505;50.882;5.350;2023-10-19T10:21:28;19.10;99.90
18753;DHT22;9505;50.882;5.350;2023-10-19T10:23:57;19.10;99.90
18753;DHT22;9505;50.882;5.350;2023-10-19T10:26:25;19.10;99.90
18753;DHT22;9505;50.882;5.350;2023-10-19T10:31:44;19.10;99.90
18753;DHT22;9505;50.882;5.350;2023-10-19T10:34:41;19.10;99.90
18753;DHT22;9505;50.882;5.350;2023-10-19T10:36:59;19.30;99.90
18753;DHT22;9505;50.882;5.350;2023-10-19T10:39:28;19.40;99.90
18753;DHT22;9505;50.882;5.350;2023-10-19T10:41:59;19.70;99.90
18753;DHT22;9505;50.882;5.350;2023-10-19T10:44:47;20.10;99.90
18753;DHT22;9505;50.882;5.350;2023-10-19T10:47:17;20.50;99.90
18753;DHT22;9505;50.882;5.350;2023-10-19T10:52:36;20.60;99.90
18753;DHT22;9505;50.882;5.350;2023-10-19T10:55:13;20.60;99.90
18753;DHT22;9505;50.882;5.350;2023-10-19T10:57:40;20.30;99.90
18753;DHT22;9505;50.882;5.350;2023-10-19T11:00:13;20.10;99.90
18753;DHT22;9505;50.882;5.350;2023-10-19T11:02:46;19.90;99.90
18753;DHT22;9505;50.882;5.350;2023-10-19T11:05:16;19.70;99.90
18753;DHT22;9505;50.882;5.350;2023-10-19T11:08:12;19.60;99.90
18753;DHT22;9505;50.882;5.350;2023-10-19T11:10:47;19.70;99.90
18753;DHT22;9505;50.882;5.350;2023-10-19T11:13:15;19.80;99.90
18753;DHT22;9505;50.882;5.350;2023-10-19T11:15:55;19.90;99.90
18753;DHT22;9505;50.882;5.350;2023-10-19T11:18:34;20.20;99.90
18753;DHT22;9505;50.882;5.350;2023-10-19T11:21:11;20.50;99.90
18753;DHT22;9505;50.882;5.350;2023-10-19T11:23:49;20.60;99.90
18753;DHT22;9505;50.882;5.350;2023-10-19T11:26:20;20.70;99.90
18753;DHT22;9505;50.882;5.350;2023-10-19T11:28:46;20.70;99.90
18753;DHT22;9505;50.882;5.350;2023-10-19T11:31:21;20.50;99.90
18753;DHT22;9505;50.882;5.350;2023-10-19T11:33:50;20.30;99.90
18753;DHT22;9505;50.882;5.350;2023-10-19T11:36:19;20.00;99.90
18753;DHT22;9505;50.882;5.350;2023-10-19T11:38:47;19.80;99.90
18753;DHT22;9505;50.882;5.350;2023-10-19T11:41:14;19.50;99.90
18753;DHT22;9505;50.882;5.350;2023-10-19T11:43:41;19.40;99.90
18753;DHT22;9505;50.882;5.350;2023-10-19T11:46:08;19.20;99.90
18753;DHT22;9505;50.882;5.350;2023-10-19T11:48:35;19.00;99.90
18753;DHT22;9505;50.882;5.350;2023-10-19T11:51:02;18.70;99.90
18753;DHT22;9505;50.882;5.350;2023-10-19T11:53:33;18.50;99.90
18753;DHT22;9505;50.882;5.350;2023-10-19T11:56:07;18.40;99.90
18753;DHT22;9505;50.882;5.350;2023-10-19T11:58:33;18.30;99.90
18753;DHT22;9505;50.882;5.350;2023-10-19T12:01:06;18.20;99.90
18753;DHT22;9505;50.882;5.350;2023-10-19T12:03:34;18.00;99.90
18753;DHT22;9505;50.882;5.350;2023-10-19T12:06:08;17.80;99.90
18753;DHT22;9505;50.882;5.350;2023-10-19T12:08:34;17.70;99.90
18753;DHT22;9505;50.882;5.350;2023-10-19T12:11:01;17.60;99.90
18753;DHT22;9505;50.882;5.350;2023-10-19T12:13:29;17.50;99.90
18753;DHT22;9505;50.882;5.350;2023-10-19T12:15:55;17.40;99.90
18753;DHT22;9505;50.882;5.350;2023-10-19T12:18:24;17.30;99.90
18753;DHT22;9505;50.882;5.350;2023-10-19T12:20:52;17.20;99.90
18753;DHT22;9505;50.882;5.350;2023-10-19T12:23:22;17.20;99.90
18753;DHT22;9505;50.882;5.350;2023-10-19T12:25:48;17.20;99.90
18753;DHT22;9505;50.882;5.350;2023-10-19T12:28:14;17.10;99.90
18753;DHT22;9505;50.882;5.350;2023-10-19T12:30:41;17.00;99.90
18753;DHT22;9505;50.882;5.350;2023-10-19T12:33:07;17.00;99.90
18753;DHT22;9505;50.882;5.350;2023-10-19T12:35:41;17.00;99.90
18753;DHT22;9505;50.882;5.350;2023-10-19T12:38:11;16.90;99.90
18753;DHT22;9505;50.882;5.350;2023-10-19T12:40:48;16.90;99.90
18753;DHT22;9505;50.882;5.350;2023-10-19T12:43:15;16.90;99.90
18753;DHT22;9505;50.882;5.350;2023-10-19T12:45:41;16.90;99.90
18753;DHT22;9505;50.882;5.350;2023-10-19T12:48:07;16.80;99.90
18753;DHT22;9505;50.882;5.350;2023-10-19T12:50:36;16.80;99.90
18753;DHT22;9505;50.882;5.350;2023-10-19T12:53:03;16.80;99.90
18753;DHT22;9505;50.882;5.350;2023-10-19T12:55:29;16.80;99.90
18753;DHT22;9505;50.882;5.350;2023-10-19T12:57:57;16.70;99.90
18753;DHT22;9505;50.882;5.350;2023-10-19T13:00:23;16.70;99.90
18753;DHT22;9505;50.882;5.350;2023-10-19T13:02:54;16.70;99.90
18753;DHT22;9505;50.882;5.350;2023-10-19T13:05:32;16.80;99.90
18753;DHT22;9505;50.882;5.350;2023-10-19T13:07:58;16.90;99.90
18753;DHT22;9505;50.882;5.350;2023-10-19T13:10:33;16.90;99.90
18753;DHT22;9505;50.882;5.350;2023-10-19T13:13:04;16.90;99.90
18753;DHT22;9505;50.882;5.350;2023-10-19T13:15:32;16.90;99.90
18753;DHT22;9505;50.882;5.350;2023-10-19T13:17:58;17.10;99.90
18753;DHT22;9505;50.882;5.350;2023-10-19T13:20:27;17.10;99.90
18753;DHT22;9505;50.882;5.350;2023-10-19T13:22:59;17.20;99.90
18753;DHT22;9505;50.882;5.350;2023-10-19T13:25:25;17.20;99.90
18753;DHT22;9505;50.882;5.350;2023-10-19T13:28:09;17.10;99.90
18753;DHT22;9505;50.882;5.350;2023-10-19T13:30:56;17.10;99.90
18753;DHT22;9505;50.882;5.350;2023-10-19T13:33:22;17.10;99.90
18753;DHT22;9505;50.882;5.350;2023-10-19T13:35:49;17.10;99.90
18753;DHT22;9505;50.882;5.350;2023-10-19T13:38:17;17.10;99.90
18753;DHT22;9505;50.882;5.350;2023-10-19T13:40:43;17.20;99.90
18753;DHT22;9505;50.882;5.350;2023-10-19T13:43:13;17.30;99.90
18753;DHT22;9505;50.882;5.350;2023-10-19T13:45:44;17.50;99.90
18753;DHT22;9505;50.882;5.350;2023-10-19T13:48:10;17.70;99.90
18753;DHT22;9505;50.882;5.350;2023-10-19T13:50:49;17.90;99.90
18753;DHT22;9505;50.882;5.350;2023-10-19T13:53:18;18.10;99.90
18753;DHT22;9505;50.882;5.350;2023-10-19T13:55:44;18.30;99.90
18753;DHT22;9505;50.882;5.350;2023-10-19T13:58:11;18.80;99.90
18753;DHT22;9505;50.882;5.350;2023-10-19T14:00:41;19.30;99.90
18753;DHT22;9505;50.882;5.350;2023-10-19T14:03:07;20.00;99.90
18753;DHT22;9505;50.882;5.350;2023-10-19T14:05:42;20.20;99.90
18753;DHT22;9505;50.882;5.350;2023-10-19T14:08:15;20.30;99.90
18753;DHT22;9505;50.882;5.350;2023-10-19T14:10:41;20.70;99.90
18753;DHT22;9505;50.882;5.350;2023-10-19T14:13:08;21.10;99.90
18753;DHT22;9505;50.882;5.350;2023-10-19T14:15:34;20.30;99.90
18753;DHT22;9505;50.882;5.350;2023-10-19T14:18:00;19.60;99.90
18753;DHT22;9505;50.882;5.350;2023-10-19T14:20:28;19.20;99.90
18753;DHT22;9505;50.882;5.350;2023-10-19T14:22:55;19.00;99.90
18753;DHT22;9505;50.882;5.350;2023-10-19T14:25:21;18.70;99.90
18753;DHT22;9505;50.882;5.350;2023-10-19T14:27:54;18.60;99.90
18753;DHT22;9505;50.882;5.350;2023-10-19T14:30:24;18.70;99.90
18753;DHT22;9505;50.882;5.350;2023-10-19T14:32:50;18.70;99.90
18753;DHT22;9505;50.882;5.350;2023-10-19T14:35:20;18.80;99.90
18753;DHT22;9505;50.882;5.350;2023-10-19T14:37:51;19.00;99.90
18753;DHT22;9505;50.882;5.350;2023-10-19T14:40:24;19.20;99.90
18753;DHT22;9505;50.882;5.350;2023-10-19T14:42:54;19.90;99.90
18753;DHT22;9505;50.882;5.350;2023-10-19T14:45:24;20.40;99.90
18753;DHT22;9505;50.882;5.350;2023-10-19T14:47:52;20.60;99.90
18753;DHT22;9505;50.882;5.350;2023-10-19T14:50:18;20.80;99.90
18753;DHT22;9505;50.882;5.350;2023-10-19T14:52:46;20.60;99.90
18753;DHT22;9505;50.882;5.350;2023-10-19T14:55:13;20.10;99.90
18753;DHT22;9505;50.882;5.350;2023-10-19T14:57:41;19.80;99.90
18753;DHT22;9505;50.882;5.350;2023-10-19T15:00:09;19.60;99.90
18753;DHT22;9505;50.882;5.350;2023-10-19T15:02:52;19.90;99.90
18753;DHT22;9505;50.882;5.350;2023-10-19T15:05:22;20.20;99.90
18753;DHT22;9505;50.882;5.350;2023-10-19T15:07:49;20.00;99.90
18753;DHT22;9505;50.882;5.350;2023-10-19T15:10:27;19.70;99.90
18753;DHT22;9505;50.882;5.350;2023-10-19T15:12:56;19.50;99.90
18753;DHT22;9505;50.882;5.350;2023-10-19T15:15:25;19.20;99.90
18753;DHT22;9505;50.882;5.350;2023-10-19T15:17:51;19.00;99.90
18753;DHT22;9505;50.882;5.350;2023-10-19T15:20:19;18.90;99.90
18753;DHT22;9505;50.882;5.350;2023-10-19T15:22:46;18.90;99.90
18753;DHT22;9505;50.882;5.350;2023-10-19T15:25:13;19.10;99.90
18753;DHT22;9505;50.882;5.350;2023-10-19T15:27:43;19.50;99.90
18753;DHT22;9505;50.882;5.350;2023-10-19T15:30:11;20.00;99.90
18753;DHT22;9505;50.882;5.350;2023-10-19T15:32:40;20.50;99.90
18753;DHT22;9505;50.882;5.350;2023-10-19T15:35:10;21.00;99.90
18753;DHT22;9505;50.882;5.350;2023-10-19T15:37:37;21.20;99.90
18753;DHT22;9505;50.882;5.350;2023-10-19T15:40:04;21.10;99.90
18753;DHT22;9505;50.882;5.350;2023-10-19T15:42:30;21.00;99.90
18753;DHT22;9505;50.882;5.350;2023-10-19T15:44:56;20.50;99.90
18753;DHT22;9505;50.882;5.350;2023-10-19T15:47:21;19.80;99.90
18753;DHT22;9505;50.882;5.350;2023-10-19T15:49:53;19.30;99.90
18753;DHT22;9505;50.882;5.350;2023-10-19T15:52:23;18.90;99.90
18753;DHT22;9505;50.882;5.350;2023-10-19T15:54:50;18.60;99.90
18753;DHT22;9505;50.882;5.350;2023-10-19T15:57:17;18.30;99.90
18753;DHT22;9505;50.882;5.350;2023-10-19T15:59:43;18.10;99.90
18753;DHT22;9505;50.882;5.350;2023-10-19T16:02:10;17.90;99.90